• Join FlightAware (Why Join?)
  • Login
  • US Flag 
06:42AM EDT


 

Airport Tracker/Info


-or-


 

Live Flight TrackerFlight Track Log ✈ AAL963 ✈ 17-Feb-2014 ✈ KDFW - SBGR / GRU

Flight Track Log - Related Links

Times and Time Zones

All times are in EST time to prevent confusion due to time zone crossing. See the AAL963 flight status page for this flight to view local times or setup timezone preferences in your user account.

Time Position Orientation Groundspeed Altitude Reporting Facility
EST Latitude Longitude Course Direction KTS MPH feet Rate Location/Type
09:50PM 32.9335 -97.0270 12° North 182 209 1,800  Level FlightAware ADS-B (KAFW)
09:50PM 32.9512 -97.0226 12° North 206 237 2,100 720 Climbing FlightAware ADS-B (KAFW)
09:50PM 32.9619 -97.0203 10° North 235 270 2,300 1,440 Climbing FlightAware ADS-B (KAFW)
09:51PM 32.9950 -97.0135 10° North 249 287 3,100 2,160 Climbing FlightAware ADS-B (KAFW)
09:51PM 33.0199 -97.0086 North 262 302 3,800 2,040 Climbing FlightAware ADS-B (KAFW)
09:51PM 33.0427 -97.0047 North 267 307 4,500 2,160 Climbing FlightAware ADS-B (KAFW)
09:52PM 33.0627 -96.9977 16° North 266 306 5,100 2,220 Climbing FlightAware ADS-B (KAFW)
09:52PM 33.0746 -96.9844 43° Northeast 263 303 5,600 1,980 Climbing FlightAware ADS-B (KAFW)
09:52PM 33.0783 -96.9770 59° Northeast 264 304 5,800 1,800 Climbing FlightAware ADS-B (KAFW)
09:52PM 33.0830 -96.9586 73° East 267 307 6,200 1,980 Climbing FlightAware ADS-B (KAFW)
09:52PM 33.0830 -96.9452 90° East 272 313 6,500 1,860 Climbing FlightAware ADS-B (KAFW)
09:53PM 33.0718 -96.9170 115° Southeast 283 326 7,100 2,040 Climbing FlightAware ADS-B (KAFW)
09:53PM 33.0535 -96.8941 134° Southeast 285 328 7,900 1,920 Climbing FlightAware ADS-B (KAFW)
09:53PM 33.0401 -96.8779 135° Southeast 290 334 8,300 1,800 Climbing FlightAware ADS-B (KAFW)
09:54PM 33.0184 -96.8514 134° Southeast 302 348 9,000 1,980 Climbing FlightAware ADS-B (KAFW)
09:54PM 32.9892 -96.8148 134° Southeast 307 353 10,100 1,440 Climbing FlightAware ADS-B (KAFW)
09:54PM 32.9620 -96.7906 143° Southeast 329 379 10,300 720 Climbing FlightAware ADS-B (KAFW)
09:55PM 32.9352 -96.7854 171° South 342 394 10,600 1,260 Climbing FlightAware ADS-B (KAFW)
09:55PM 32.8678 -96.7884 182° South 379 436 11,500 2,220 Climbing FlightAware ADS-B (KAFW)
09:56PM 32.7953 -96.7918 182° South 389 448 13,500 2,700 Climbing FlightAware ADS-B (KAFW)
09:57PM 32.7001 -96.7963 182° South 407 468 15,800 2,400 Climbing FlightAware ADS-B (KAFW)
09:58PM 32.6272 -96.7998 182° South 413 475 17,100 2,100 Climbing FlightAware ADS-B (KAFW)
10:03PM 31.9315 -96.6810 172° South 499 574 28,800 2,100 Climbing FlightAware ADS-B
10:04PM 31.8255 -96.6397 162° South 495 570 30,700 2,040 Climbing FlightAware ADS-B
10:05PM 31.7894 -96.6248 161° South 493 567 31,900 900 Climbing FlightAware ADS-B
10:06PM 31.5056 -96.5086 161° South 494 568 33,000 360 Climbing FlightAware ADS-B
10:07PM 31.3681 -96.4574 162° South 495 570 33,000  Level FlightAware ADS-B
10:08PM 31.3033 -96.4335 162° South 496 571 33,000  Level FlightAware ADS-B
10:08PM 31.2350 -96.4081 162° South 497 572 33,000  Level FlightAware ADS-B
10:09PM 31.1756 -96.3754 155° Southeast 515 593 33,000  Level FlightAware ADS-B
10:09PM 31.1382 -96.3371 139° Southeast 528 608 33,000  Level FlightAware ADS-B
10:10PM 31.0921 -96.2651 127° Southeast 534 615 33,000  Level FlightAware ADS-B
10:10PM 31.0592 -96.2115 126° Southeast 534 615 33,000  Level FlightAware ADS-B
10:11PM 30.9841 -96.0878 125° Southeast 531 611 33,000  Level FlightAware ADS-B
10:12PM 30.9284 -95.9972 126° Southeast 531 611 33,000  Level FlightAware ADS-B
10:12PM 30.8669 -95.8977 126° Southeast 530 610 33,000  Level FlightAware ADS-B
10:13PM 30.8219 -95.8208 126° Southeast 534 615 33,000  Level Fort Worth Center
10:18PM 30.3416 -95.0773 126° Southeast 525 604 33,000  Level FlightAware ADS-B
10:19PM 30.2313 -94.9610 138° Southeast 522 601 33,000  Level FlightAware ADS-B
10:20PM 30.1437 -94.8725 139° Southeast 521 600 33,000  Level FlightAware ADS-B
10:21PM 30.0884 -94.8166 139° Southeast 521 600 33,000  Level FlightAware ADS-B
10:21PM 30.0329 -94.7604 139° Southeast 520 598 33,000  Level FlightAware ADS-B
10:22PM 29.9789 -94.7058 139° Southeast 520 598 33,000  Level FlightAware ADS-B
10:22PM 29.9073 -94.6333 139° Southeast 519 597 33,000  Level FlightAware ADS-B
10:23PM 29.8518 -94.5773 139° Southeast 517 595 33,000  Level FlightAware ADS-B
10:23PM 29.7976 -94.5228 139° Southeast 517 595 33,000  Level FlightAware ADS-B
10:24PM 29.7427 -94.4677 139° Southeast 516 594 33,000  Level FlightAware ADS-B
10:25PM 29.6718 -94.3965 139° Southeast 515 593 33,000  Level FlightAware ADS-B
10:25PM 29.6206 -94.3453 139° Southeast 515 593 33,000  Level FlightAware ADS-B
10:26PM 29.5651 -94.2898 139° Southeast 515 593 33,000  Level FlightAware ADS-B
10:26PM 29.4935 -94.2182 139° Southeast 514 592 33,000  Level FlightAware ADS-B
10:27PM 29.4328 -94.1569 139° Southeast 514 592 33,000  Level FlightAware ADS-B
10:28PM 29.3148 -94.0380 139° Southeast 515 593 33,000  Level FlightAware ADS-B
10:29PM 29.2296 -93.9525 139° Southeast 514 592 33,000  Level FlightAware ADS-B
10:30PM 29.1238 -93.8467 139° Southeast 513 590 33,000 -60 Level FlightAware ADS-B
10:31PM 28.9878 -93.7111 139° Southeast 511 588 32,900  Descending Houston Center
10:32PM 28.8806 -93.6039 139° Southeast 513 590 33,000  Climbing Houston Center
10:33PM 28.7731 -93.4989 139° Southeast 511 588 32,900  Descending Houston Center
10:34PM 28.6661 -93.3922 139° Southeast 512 589 33,000  Climbing Houston Center
10:35PM 28.5672 -93.2950 139° Southeast 511 588 33,000  Level Houston Center
10:36PM 28.4519 -93.1814 139° Southeast 512 589 33,000  Level Houston Center
10:37PM 28.3447 -93.0761 139° Southeast 511 588 33,000  Level Houston Center
10:38PM 28.2372 -92.9714 139° Southeast 510 587 33,000  Level Houston Center
10:39PM 28.1294 -92.8669 139° Southeast 511 588 33,000 -60 Level Houston Center
10:40PM 28.0017 -92.7425 139° Southeast 507 583 32,900 -60 Descending Houston Center
10:41PM 27.8950 -92.6381 139° Southeast 507 583 32,900  Level Houston Center
10:42PM 27.7869 -92.5350 140° Southeast 508 585 33,000  Climbing Houston Center
10:43PM 27.6789 -92.4322 140° Southeast 509 586 32,900 -60 Descending Houston Center
10:44PM 27.5719 -92.3275 139° Southeast 510 587 32,900  Level Houston Center
10:45PM 27.4644 -92.2244 140° Southeast 508 585 32,900  Level Houston Center
10:47PM 27.3440 -92.1064 139° Southeast  Level FlightAware Approximate
10:54PM 26.5662 -91.4543 144° Southeast  Level FlightAware Approximate
10:55PM 26.4530 -91.3646 145° Southeast  Level FlightAware Approximate
10:56PM 26.3396 -91.2751 145° Southeast  Level FlightAware Approximate
10:57PM 26.2263 -91.1858 145° Southeast  Level FlightAware Approximate
10:58PM 26.1129 -91.0965 145° Southeast  Level FlightAware Approximate
10:59PM 25.9995 -91.0075 145° Southeast  Level FlightAware Approximate
11:00PM 25.8860 -90.9186 145° Southeast  Level FlightAware Approximate
11:01PM 25.7724 -90.8299 145° Southeast  Level FlightAware Approximate
11:02PM 25.6588 -90.7413 145° Southeast  Level FlightAware Approximate
11:03PM 25.5451 -90.6530 145° Southeast  Level FlightAware Approximate
11:04PM 25.4314 -90.5648 145° Southeast  Level FlightAware Approximate
11:05PM 25.3177 -90.4768 145° Southeast  Level FlightAware Approximate
11:06PM 25.2038 -90.3889 145° Southeast  Level FlightAware Approximate
11:07PM 25.0900 -90.3012 145° Southeast  Level FlightAware Approximate
11:08PM 24.9760 -90.2136 145° Southeast  Level FlightAware Approximate
11:09PM 24.8621 -90.1263 145° Southeast  Level FlightAware Approximate
11:10PM 24.7481 -90.0390 145° Southeast  Level FlightAware Approximate
11:11PM 24.6340 -89.9520 145° Southeast  Level FlightAware Approximate
11:12PM 24.5198 -89.8651 145° Southeast  Level FlightAware Approximate
11:13PM 24.4382 -89.7451 119° Southeast  Level FlightAware Approximate
11:14PM 24.3701 -89.6123 119° Southeast  Level FlightAware Approximate
11:15PM 24.3018 -89.4796 119° Southeast  Level FlightAware Approximate
11:16PM 24.2335 -89.3471 119° Southeast  Level FlightAware Approximate
11:17PM 24.1668 -89.2136 116° Southeast  Level FlightAware Approximate
11:18PM 24.1049 -89.0775 116° Southeast  Level FlightAware Approximate
11:19PM 24.0189 -88.9585 129° Southeast  Level FlightAware Approximate
11:20PM 23.9363 -88.8365 126° Southeast  Level FlightAware Approximate
11:21PM 23.8551 -88.7133 126° Southeast  Level FlightAware Approximate
11:22PM 23.7739 -88.5903 126° Southeast  Level FlightAware Approximate
11:23PM 23.6925 -88.4674 126° Southeast  Level FlightAware Approximate
11:24PM 23.6110 -88.3447 126° Southeast  Level FlightAware Approximate
11:25PM 23.5295 -88.2222 126° Southeast  Level FlightAware Approximate
11:26PM 23.4478 -88.0998 126° Southeast  Level FlightAware Approximate
11:27PM 23.3661 -87.9775 126° Southeast  Level FlightAware Approximate
11:28PM 23.2843 -87.8554 126° Southeast  Level FlightAware Approximate
11:29PM 23.2023 -87.7335 126° Southeast  Level FlightAware Approximate
11:30PM 23.1203 -87.6117 126° Southeast  Level FlightAware Approximate
11:31PM 23.0382 -87.4900 126° Southeast  Level FlightAware Approximate
11:32PM 22.9559 -87.3685 126° Southeast  Level FlightAware Approximate
11:33PM 22.8736 -87.2472 126° Southeast  Level FlightAware Approximate
11:34PM 22.7912 -87.1260 126° Southeast  Level FlightAware Approximate
11:35PM 22.7087 -87.0049 126° Southeast  Level FlightAware Approximate
11:36PM 22.6262 -86.8840 126° Southeast  Level FlightAware Approximate
11:37PM 22.5435 -86.7632 127° Southeast  Level FlightAware Approximate
11:38PM 22.4607 -86.6426 127° Southeast  Level FlightAware Approximate
11:39PM 22.3779 -86.5221 127° Southeast  Level FlightAware Approximate
11:40PM 22.2949 -86.4018 127° Southeast  Level FlightAware Approximate
11:41PM 22.2119 -86.2816 127° Southeast  Level FlightAware Approximate
11:42PM 22.1288 -86.1615 127° Southeast  Level FlightAware Approximate
11:43PM 22.0456 -86.0416 127° Southeast  Level FlightAware Approximate
11:44PM 21.9623 -85.9218 127° Southeast  Level FlightAware Approximate
11:45PM 21.8789 -85.8022 127° Southeast  Level FlightAware Approximate
11:46PM 21.7954 -85.6827 127° Southeast  Level FlightAware Approximate
11:47PM 21.7118 -85.5634 127° Southeast  Level FlightAware Approximate
11:48PM 21.6281 -85.4442 127° Southeast  Level FlightAware Approximate
11:49PM 21.5444 -85.3251 127° Southeast  Level FlightAware Approximate
11:50PM 21.4606 -85.2062 127° Southeast  Level FlightAware Approximate
11:51PM 21.3767 -85.0874 127° Southeast  Level FlightAware Approximate
11:52PM 21.2927 -84.9688 127° Southeast  Level FlightAware Approximate
11:53PM 21.2086 -84.8503 127° Southeast  Level FlightAware Approximate
11:54PM 21.1244 -84.7319 127° Southeast  Level FlightAware Approximate
11:55PM 21.0402 -84.6136 127° Southeast  Level FlightAware Approximate
11:56PM 20.9559 -84.4955 127° Southeast  Level FlightAware Approximate
11:57PM 20.8715 -84.3775 127° Southeast  Level FlightAware Approximate
11:58PM 20.7870 -84.2597 127° Southeast  Level FlightAware Approximate
11:59PM 20.7024 -84.1420 128° Southeast  Level FlightAware Approximate
12:00AM 20.6178 -84.0244 128° Southeast  Level FlightAware Approximate
12:01AM 20.5330 -83.9069 128° Southeast  Level FlightAware Approximate
12:02AM 20.4482 -83.7896 128° Southeast  Level FlightAware Approximate
12:03AM 20.3680 -83.6693 118° Southeast  Level FlightAware Approximate
12:04AM 20.2828 -83.5524 128° Southeast  Level FlightAware Approximate
12:05AM 20.1971 -83.4360 128° Southeast  Level FlightAware Approximate
12:06AM 20.1114 -83.3197 128° Southeast  Level FlightAware Approximate
12:07AM 20.0255 -83.2036 128° Southeast  Level FlightAware Approximate
12:08AM 19.9396 -83.0875 128° Southeast  Level FlightAware Approximate
12:09AM 19.8537 -82.9716 128° Southeast  Level FlightAware Approximate
12:10AM 19.7681 -82.8554 128° Southeast  Level FlightAware Approximate
12:11AM 19.6825 -82.7393 128° Southeast  Level FlightAware Approximate
12:12AM 19.5969 -82.6234 128° Southeast  Level FlightAware Approximate
12:13AM 19.5111 -82.5075 128° Southeast  Level FlightAware Approximate
12:14AM 19.4253 -82.3918 128° Southeast  Level FlightAware Approximate
12:15AM 19.3394 -82.2762 128° Southeast  Level FlightAware Approximate
12:16AM 19.2534 -82.1607 128° Southeast  Level FlightAware Approximate
12:17AM 19.1675 -82.0452 128° Southeast  Level FlightAware Approximate
12:18AM 19.0819 -81.9296 128° Southeast  Level FlightAware Approximate
12:19AM 18.9963 -81.8140 128° Southeast  Level FlightAware Approximate
12:20AM 18.9106 -81.6985 128° Southeast  Level FlightAware Approximate
12:21AM 18.8248 -81.5832 128° Southeast  Level FlightAware Approximate
12:22AM 18.7389 -81.4680 128° Southeast  Level FlightAware Approximate
12:23AM 18.6530 -81.3529 128° Southeast  Level FlightAware Approximate
12:24AM 18.5670 -81.2379 128° Southeast  Level FlightAware Approximate
12:25AM 18.4809 -81.1231 128° Southeast  Level FlightAware Approximate
12:26AM 18.3948 -81.0083 128° Southeast  Level FlightAware Approximate
12:27AM 18.3086 -80.8937 128° Southeast  Level FlightAware Approximate
12:28AM 18.2223 -80.7792 128° Southeast  Level FlightAware Approximate
12:29AM 18.1359 -80.6648 129° Southeast  Level FlightAware Approximate
12:30AM 18.0491 -80.5509 129° Southeast  Level FlightAware Approximate
12:31AM 17.9622 -80.4371 129° Southeast  Level FlightAware Approximate
12:32AM 17.8752 -80.3234 129° Southeast  Level FlightAware Approximate
12:33AM 17.7881 -80.2098 129° Southeast  Level FlightAware Approximate
12:34AM 17.7010 -80.0963 129° Southeast  Level FlightAware Approximate
12:35AM 17.6139 -79.9829 129° Southeast  Level FlightAware Approximate
12:36AM 17.5266 -79.8697 129° Southeast  Level FlightAware Approximate
12:37AM 17.4393 -79.7565 129° Southeast  Level FlightAware Approximate
12:38AM 17.3520 -79.6435 129° Southeast  Level FlightAware Approximate
12:39AM 17.2645 -79.5305 129° Southeast  Level FlightAware Approximate
12:40AM 17.1770 -79.4177 129° Southeast  Level FlightAware Approximate
12:41AM 17.0895 -79.3050 129° Southeast  Level FlightAware Approximate
12:42AM 17.0019 -79.1924 129° Southeast  Level FlightAware Approximate
12:43AM 16.9142 -79.0799 129° Southeast  Level FlightAware Approximate
12:44AM 16.8265 -78.9675 129° Southeast  Level FlightAware Approximate
12:45AM 16.7386 -78.8551 129° Southeast  Level FlightAware Approximate
12:46AM 16.6508 -78.7430 129° Southeast  Level FlightAware Approximate
12:47AM 16.5629 -78.6309 129° Southeast  Level FlightAware Approximate
12:48AM 16.4749 -78.5189 129° Southeast  Level FlightAware Approximate
12:49AM 16.3869 -78.4070 129° Southeast  Level FlightAware Approximate
12:50AM 16.2987 -78.2952 129° Southeast  Level FlightAware Approximate
12:51AM 16.2106 -78.1835 129° Southeast  Level FlightAware Approximate
12:52AM 16.1224 -78.0719 129° Southeast  Level FlightAware Approximate
12:53AM 16.0341 -77.9604 129° Southeast  Level FlightAware Approximate
12:54AM 15.9458 -77.8490 130° Southeast  Level FlightAware Approximate
12:55AM 15.8574 -77.7377 130° Southeast  Level FlightAware Approximate
12:56AM 15.7689 -77.6265 130° Southeast  Level FlightAware Approximate
12:57AM 15.6804 -77.5154 130° Southeast  Level FlightAware Approximate
12:58AM 15.5919 -77.4044 130° Southeast  Level FlightAware Approximate
12:59AM 15.5033 -77.2935 130° Southeast  Level FlightAware Approximate
01:00AM 15.4146 -77.1827 130° Southeast  Level FlightAware Approximate
01:01AM 15.3259 -77.0720 130° Southeast  Level FlightAware Approximate
01:02AM 15.2371 -76.9613 130° Southeast  Level FlightAware Approximate
01:03AM 15.1483 -76.8508 130° Southeast  Level FlightAware Approximate
01:04AM 15.0594 -76.7404 130° Southeast  Level FlightAware Approximate
01:05AM 14.9704 -76.6300 130° Southeast  Level FlightAware Approximate
01:06AM 14.8813 -76.5199 130° Southeast  Level FlightAware Approximate
01:07AM 14.7921 -76.4098 130° Southeast  Level FlightAware Approximate
01:08AM 14.7029 -76.2999 130° Southeast  Level FlightAware Approximate
01:09AM 14.6136 -76.1900 130° Southeast  Level FlightAware Approximate
01:10AM 14.5243 -76.0802 130° Southeast  Level FlightAware Approximate
01:11AM 14.4349 -75.9705 130° Southeast  Level FlightAware Approximate
01:12AM 14.3455 -75.8609 130° Southeast  Level FlightAware Approximate
01:13AM 14.2560 -75.7514 130° Southeast  Level FlightAware Approximate
01:14AM 14.1665 -75.6419 130° Southeast  Level FlightAware Approximate
01:15AM 14.0769 -75.5326 130° Southeast  Level FlightAware Approximate
01:16AM 13.9873 -75.4233 130° Southeast  Level FlightAware Approximate
01:17AM 13.8976 -75.3141 130° Southeast  Level FlightAware Approximate
01:18AM 13.8079 -75.2050 130° Southeast  Level FlightAware Approximate
01:19AM 13.7181 -75.0960 130° Southeast  Level FlightAware Approximate
01:20AM 13.6283 -74.9871 130° Southeast  Level FlightAware Approximate
01:21AM 13.5385 -74.8782 130° Southeast  Level FlightAware Approximate
01:22AM 13.4486 -74.7695 130° Southeast  Level FlightAware Approximate
01:23AM 13.3586 -74.6608 130° Southeast  Level FlightAware Approximate
01:24AM 13.2686 -74.5522 130° Southeast  Level FlightAware Approximate
01:25AM 13.1785 -74.4437 130° Southeast  Level FlightAware Approximate
01:26AM 13.0884 -74.3352 130° Southeast  Level FlightAware Approximate
01:27AM 12.9983 -74.2269 130° Southeast  Level FlightAware Approximate
01:28AM 12.9081 -74.1186 131° Southeast  Level FlightAware Approximate
01:29AM 12.8179 -74.0104 131° Southeast  Level FlightAware Approximate
01:30AM 12.7276 -73.9023 131° Southeast  Level FlightAware Approximate
01:31AM 12.6373 -73.7942 131° Southeast  Level FlightAware Approximate
01:32AM 12.5469 -73.6862 131° Southeast  Level FlightAware Approximate
01:33AM 12.4565 -73.5783 131° Southeast  Level FlightAware Approximate
01:34AM 12.3661 -73.4705 131° Southeast  Level FlightAware Approximate
01:35AM 12.2756 -73.3628 131° Southeast  Level FlightAware Approximate
01:36AM 12.1851 -73.2551 131° Southeast  Level FlightAware Approximate
01:37AM 12.0945 -73.1475 131° Southeast  Level FlightAware Approximate
01:38AM 12.0039 -73.0400 131° Southeast  Level FlightAware Approximate
01:39AM 11.9132 -72.9325 131° Southeast  Level FlightAware Approximate
01:40AM 11.8225 -72.8251 131° Southeast  Level FlightAware Approximate
01:41AM 11.7318 -72.7178 131° Southeast  Level FlightAware Approximate
01:42AM 11.6410 -72.6106 131° Southeast  Level FlightAware Approximate
01:43AM 11.5502 -72.5034 131° Southeast  Level FlightAware Approximate
01:44AM 11.4593 -72.3963 131° Southeast  Level FlightAware Approximate
01:45AM 11.3684 -72.2893 131° Southeast  Level FlightAware Approximate
01:46AM 11.2775 -72.1823 131° Southeast  Level FlightAware Approximate
01:47AM 11.1714 -72.0922 144° Southeast  Level FlightAware Approximate
01:48AM 11.0588 -72.0095 144° Southeast  Level FlightAware Approximate
01:49AM 10.9462 -71.9268 144° Southeast  Level FlightAware Approximate
01:50AM 10.8336 -71.8442 144° Southeast  Level FlightAware Approximate
01:51AM 10.7209 -71.7616 144° Southeast  Level FlightAware Approximate
01:52AM 10.6082 -71.6791 144° Southeast  Level FlightAware Approximate
01:53AM 10.4955 -71.5967 144° Southeast  Level FlightAware Approximate
01:54AM 10.3828 -71.5143 144° Southeast  Level FlightAware Approximate
01:55AM 10.2701 -71.4320 144° Southeast  Level FlightAware Approximate
01:56AM 10.1573 -71.3498 144° Southeast  Level FlightAware Approximate
01:57AM 10.0445 -71.2676 144° Southeast  Level FlightAware Approximate
01:58AM 9.9317 -71.1854 144° Southeast  Level FlightAware Approximate
01:59AM 9.8189 -71.1033 144° Southeast  Level FlightAware Approximate
02:00AM 9.7060 -71.0213 144° Southeast  Level FlightAware Approximate
02:01AM 9.5931 -70.9393 144° Southeast  Level FlightAware Approximate
02:02AM 9.4803 -70.8574 144° Southeast  Level FlightAware Approximate
02:03AM 9.3673 -70.7756 144° Southeast  Level FlightAware Approximate
02:04AM 9.2544 -70.6937 144° Southeast  Level FlightAware Approximate
02:05AM 9.1415 -70.6120 144° Southeast  Level FlightAware Approximate
02:06AM 9.0285 -70.5303 144° Southeast  Level FlightAware Approximate
02:07AM 8.9155 -70.4486 144° Southeast  Level FlightAware Approximate
02:08AM 8.8025 -70.3670 144° Southeast  Level FlightAware Approximate
02:09AM 8.6895 -70.2855 144° Southeast  Level FlightAware Approximate
02:10AM 8.5765 -70.2040 145° Southeast  Level FlightAware Approximate
02:11AM 8.4635 -70.1225 145° Southeast  Level FlightAware Approximate
02:12AM 8.3504 -70.0411 145° Southeast  Level FlightAware Approximate
02:13AM 8.2373 -69.9597 145° Southeast  Level FlightAware Approximate
02:14AM 8.1242 -69.8784 145° Southeast  Level FlightAware Approximate
02:15AM 8.0111 -69.7971 145° Southeast  Level FlightAware Approximate
02:16AM 7.8980 -69.7159 145° Southeast  Level FlightAware Approximate
02:17AM 7.7848 -69.6348 145° Southeast  Level FlightAware Approximate
02:18AM 7.6716 -69.5536 145° Southeast  Level FlightAware Approximate
02:19AM 7.5585 -69.4725 145° Southeast  Level FlightAware Approximate
02:20AM 7.4453 -69.3915 145° Southeast  Level FlightAware Approximate
02:21AM 7.3321 -69.3105 145° Southeast  Level FlightAware Approximate
02:22AM 7.2189 -69.2295 145° Southeast  Level FlightAware Approximate
02:23AM 7.1056 -69.1486 145° Southeast  Level FlightAware Approximate
02:24AM 6.9924 -69.0677 145° Southeast  Level FlightAware Approximate
02:25AM 6.8791 -68.9868 145° Southeast  Level FlightAware Approximate
02:26AM 6.7658 -68.9060 145° Southeast  Level FlightAware Approximate
02:27AM 6.6525 -68.8252 145° Southeast  Level FlightAware Approximate
02:28AM 6.5392 -68.7445 145° Southeast  Level FlightAware Approximate
02:29AM 6.4259 -68.6638 145° Southeast  Level FlightAware Approximate
02:30AM 6.3126 -68.5832 145° Southeast  Level FlightAware Approximate
02:31AM 6.1992 -68.5025 145° Southeast  Level FlightAware Approximate
02:32AM 6.0859 -68.4219 145° Southeast  Level FlightAware Approximate
02:33AM 5.9725 -68.3414 145° Southeast  Level FlightAware Approximate
02:34AM 5.8591 -68.2608 145° Southeast  Level FlightAware Approximate
02:35AM 5.7458 -68.1804 145° Southeast  Level FlightAware Approximate
02:36AM 5.6324 -68.0999 145° Southeast  Level FlightAware Approximate
02:37AM 5.5189 -68.0195 145° Southeast  Level FlightAware Approximate
02:38AM 5.4055 -67.9391 145° Southeast  Level FlightAware Approximate
02:39AM 5.2921 -67.8587 145° Southeast  Level FlightAware Approximate
02:40AM 5.1787 -67.7784 145° Southeast  Level FlightAware Approximate
02:41AM 5.0652 -67.6981 145° Southeast  Level FlightAware Approximate
02:42AM 4.9517 -67.6178 145° Southeast  Level FlightAware Approximate
02:43AM 4.8383 -67.5375 145° Southeast  Level FlightAware Approximate
02:44AM 4.7248 -67.4573 145° Southeast  Level FlightAware Approximate
02:45AM 4.6113 -67.3771 145° Southeast  Level FlightAware Approximate
02:46AM 4.4978 -67.2969 145° Southeast  Level FlightAware Approximate
02:47AM 4.3843 -67.2168 145° Southeast  Level FlightAware Approximate
02:48AM 4.2708 -67.1367 145° Southeast  Level FlightAware Approximate
02:49AM 4.1572 -67.0565 145° Southeast  Level FlightAware Approximate
02:50AM 4.0437 -66.9765 145° Southeast  Level FlightAware Approximate
02:51AM 3.9302 -66.8964 145° Southeast  Level FlightAware Approximate
02:52AM 3.8166 -66.8164 145° Southeast  Level FlightAware Approximate
02:53AM 3.7031 -66.7364 145° Southeast  Level FlightAware Approximate
02:54AM 3.5895 -66.6564 145° Southeast  Level FlightAware Approximate
02:55AM 3.4759 -66.5764 145° Southeast  Level FlightAware Approximate
02:56AM 3.3624 -66.4965 145° Southeast  Level FlightAware Approximate
02:57AM 3.2488 -66.4165 145° Southeast  Level FlightAware Approximate
02:58AM 3.1352 -66.3366 145° Southeast  Level FlightAware Approximate
02:59AM 3.0216 -66.2567 145° Southeast  Level FlightAware Approximate
03:00AM 2.9080 -66.1768 145° Southeast  Level FlightAware Approximate
03:01AM 2.7944 -66.0970 145° Southeast  Level FlightAware Approximate
03:02AM 2.6808 -66.0171 145° Southeast  Level FlightAware Approximate
03:03AM 2.5672 -65.9373 145° Southeast  Level FlightAware Approximate
03:04AM 2.4535 -65.8575 145° Southeast  Level FlightAware Approximate
03:05AM 2.3399 -65.7776 145° Southeast  Level FlightAware Approximate
03:06AM 2.2263 -65.6978 145° Southeast  Level FlightAware Approximate
03:07AM 2.1126 -65.6181 145° Southeast  Level FlightAware Approximate
03:08AM 1.9990 -65.5383 145° Southeast  Level FlightAware Approximate
03:09AM 1.8853 -65.4585 145° Southeast  Level FlightAware Approximate
03:10AM 1.7717 -65.3788 145° Southeast  Level FlightAware Approximate
03:11AM 1.6580 -65.2990 145° Southeast  Level FlightAware Approximate
03:12AM 1.5444 -65.2193 145° Southeast  Level FlightAware Approximate
03:13AM 1.4307 -65.1396 145° Southeast  Level FlightAware Approximate
03:14AM 1.3171 -65.0599 145° Southeast  Level FlightAware Approximate
03:15AM 1.2034 -64.9802 145° Southeast  Level FlightAware Approximate
03:16AM 1.0898 -64.9005 145° Southeast  Level FlightAware Approximate
03:17AM 0.9761 -64.8208 145° Southeast  Level FlightAware Approximate
03:18AM 0.8624 -64.7411 145° Southeast  Level FlightAware Approximate
03:19AM 0.7487 -64.6614 145° Southeast  Level FlightAware Approximate
03:20AM 0.6351 -64.5817 145° Southeast  Level FlightAware Approximate
03:21AM 0.5214 -64.5021 145° Southeast  Level FlightAware Approximate
03:22AM 0.4077 -64.4224 145° Southeast  Level FlightAware Approximate
03:23AM 0.2941 -64.3427 145° Southeast  Level FlightAware Approximate
03:24AM 0.1804 -64.2630 145° Southeast  Level FlightAware Approximate
03:25AM 0.0667 -64.1834 145° Southeast  Level FlightAware Approximate
03:26AM -0.0470 -64.1037 145° Southeast  Level FlightAware Approximate
03:27AM -0.1607 -64.0240 145° Southeast  Level FlightAware Approximate
03:28AM -0.2743 -63.9444 145° Southeast  Level FlightAware Approximate
03:29AM -0.3880 -63.8647 145° Southeast  Level FlightAware Approximate
03:30AM -0.5017 -63.7850 145° Southeast  Level FlightAware Approximate
03:31AM -0.6154 -63.7053 145° Southeast  Level FlightAware Approximate
03:32AM -0.7290 -63.6257 145° Southeast  Level FlightAware Approximate
03:33AM -0.8427 -63.5460 145° Southeast  Level FlightAware Approximate
03:34AM -0.9564 -63.4663 145° Southeast  Level FlightAware Approximate
03:35AM -1.0701 -63.3866 145° Southeast  Level FlightAware Approximate
03:36AM -1.1837 -63.3069 145° Southeast  Level FlightAware Approximate
03:37AM -1.2974 -63.2272 145° Southeast  Level FlightAware Approximate
03:38AM -1.4110 -63.1475 145° Southeast  Level FlightAware Approximate
03:39AM -1.5247 -63.0678 145° Southeast  Level FlightAware Approximate
03:40AM -1.6384 -62.9880 145° Southeast  Level FlightAware Approximate
03:41AM -1.7520 -62.9083 145° Southeast  Level FlightAware Approximate
03:42AM -1.8657 -62.8285 145° Southeast  Level FlightAware Approximate
03:43AM -1.9793 -62.7488 145° Southeast  Level FlightAware Approximate
03:44AM -2.0930 -62.6690 145° Southeast  Level FlightAware Approximate
03:45AM -2.2066 -62.5892 145° Southeast  Level FlightAware Approximate
03:46AM -2.3202 -62.5094 145° Southeast  Level FlightAware Approximate
03:47AM -2.4339 -62.4296 145° Southeast  Level FlightAware Approximate
03:48AM -2.5475 -62.3498 145° Southeast  Level FlightAware Approximate
03:49AM -2.6611 -62.2700 145° Southeast  Level FlightAware Approximate
03:50AM -2.7747 -62.1901 145° Southeast  Level FlightAware Approximate
03:51AM -2.8883 -62.1103 145° Southeast  Level FlightAware Approximate
03:52AM -3.0019 -62.0304 145° Southeast  Level FlightAware Approximate
03:53AM -3.1155 -61.9505 145° Southeast  Level FlightAware Approximate
03:54AM -3.2291 -61.8706 145° Southeast  Level FlightAware Approximate
03:55AM -3.3427 -61.7906 145° Southeast  Level FlightAware Approximate
03:56AM -3.4563 -61.7107 145° Southeast  Level FlightAware Approximate
03:57AM -3.5698 -61.6307 145° Southeast  Level FlightAware Approximate
03:58AM -3.6834 -61.5507 145° Southeast  Level FlightAware Approximate
03:59AM -3.7970 -61.4707 145° Southeast  Level FlightAware Approximate
04:00AM -3.9105 -61.3907 145° Southeast  Level FlightAware Approximate
04:01AM -4.0241 -61.3106 145° Southeast  Level FlightAware Approximate
04:02AM -4.1376 -61.2306 145° Southeast  Level FlightAware Approximate
04:03AM -4.2511 -61.1505 145° Southeast  Level FlightAware Approximate
04:04AM -4.3646 -61.0704 145° Southeast  Level FlightAware Approximate
04:05AM -4.4781 -60.9902 145° Southeast  Level FlightAware Approximate
04:06AM -4.5916 -60.9100 145° Southeast  Level FlightAware Approximate
04:07AM -4.7051 -60.8298 145° Southeast  Level FlightAware Approximate
04:08AM -4.8186 -60.7496 145° Southeast  Level FlightAware Approximate
04:09AM -4.9321 -60.6694 145° Southeast  Level FlightAware Approximate
04:10AM -5.0455 -60.5891 145° Southeast  Level FlightAware Approximate
04:11AM -5.1590 -60.5088 145° Southeast  Level FlightAware Approximate
04:12AM -5.2724 -60.4285 145° Southeast  Level FlightAware Approximate
04:13AM -5.3859 -60.3481 145° Southeast  Level FlightAware Approximate
04:14AM -5.4993 -60.2677 145° Southeast  Level FlightAware Approximate
04:15AM -5.6127 -60.1873 145° Southeast  Level FlightAware Approximate
04:16AM -5.7261 -60.1068 145° Southeast  Level FlightAware Approximate
04:17AM -5.8395 -60.0263 145° Southeast  Level FlightAware Approximate
04:18AM -5.9529 -59.9458 145° Southeast  Level FlightAware Approximate
04:19AM -6.0662 -59.8653 145° Southeast  Level FlightAware Approximate
04:20AM -6.1796 -59.7847 145° Southeast  Level FlightAware Approximate
04:21AM -6.2929 -59.7041 145° Southeast  Level FlightAware Approximate
04:22AM -6.4063 -59.6234 145° Southeast  Level FlightAware Approximate
04:23AM -6.5196 -59.5427 145° Southeast  Level FlightAware Approximate
04:24AM -6.6329 -59.4620 145° Southeast  Level FlightAware Approximate
04:25AM -6.7462 -59.3812 145° Southeast  Level FlightAware Approximate
04:26AM -6.8595 -59.3004 145° Southeast  Level FlightAware Approximate
04:27AM -6.9727 -59.2196 145° Southeast  Level FlightAware Approximate
04:28AM -7.0860 -59.1387 145° Southeast  Level FlightAware Approximate
04:29AM -7.1992 -59.0578 145° Southeast  Level FlightAware Approximate
04:30AM -7.3124 -58.9768 145° Southeast  Level FlightAware Approximate
04:31AM -7.4257 -58.8958 145° Southeast  Level FlightAware Approximate
04:32AM -7.5388 -58.8148 145° Southeast  Level FlightAware Approximate
04:33AM -7.6520 -58.7337 145° Southeast  Level FlightAware Approximate
04:34AM -7.7652 -58.6526 145° Southeast  Level FlightAware Approximate
04:35AM -7.8783 -58.5714 145° Southeast  Level FlightAware Approximate
04:36AM -7.9915 -58.4902 145° Southeast  Level FlightAware Approximate
04:37AM -8.1046 -58.4089 145° Southeast  Level FlightAware Approximate
04:38AM -8.2177 -58.3276 145° Southeast  Level FlightAware Approximate
04:39AM -8.3308 -58.2463 145° Southeast  Level FlightAware Approximate
04:40AM -8.4438 -58.1649 145° Southeast  Level FlightAware Approximate
04:41AM -8.5569 -58.0834 145° Southeast  Level FlightAware Approximate
04:42AM -8.6699 -58.0019 145° Southeast  Level FlightAware Approximate
04:43AM -8.7829 -57.9204 145° Southeast  Level FlightAware Approximate
04:44AM -8.8959 -57.8388 144° Southeast  Level FlightAware Approximate
04:45AM -9.0089 -57.7571 144° Southeast  Level FlightAware Approximate
04:46AM -9.1219 -57.6754 144° Southeast  Level FlightAware Approximate
04:47AM -9.2348 -57.5937 144° Southeast  Level FlightAware Approximate
04:48AM -9.3477 -57.5119 144° Southeast  Level FlightAware Approximate
04:49AM -9.4607 -57.4300 144° Southeast  Level FlightAware Approximate
04:50AM -9.5736 -57.3481 144° Southeast  Level FlightAware Approximate
04:51AM -9.6864 -57.2661 144° Southeast  Level FlightAware Approximate
04:52AM -9.7993 -57.1841 144° Southeast  Level FlightAware Approximate
04:53AM -9.9121 -57.1021 144° Southeast  Level FlightAware Approximate
04:54AM -10.0249 -57.0199 144° Southeast  Level FlightAware Approximate
04:55AM -10.1377 -56.9377 144° Southeast  Level FlightAware Approximate
04:56AM -10.2505 -56.8555 144° Southeast  Level FlightAware Approximate
04:57AM -10.3632 -56.7732 144° Southeast  Level FlightAware Approximate
04:58AM -10.4760 -56.6908 144° Southeast  Level FlightAware Approximate
04:59AM -10.5887 -56.6084 144° Southeast  Level FlightAware Approximate
05:00AM -10.7014 -56.5259 144° Southeast  Level FlightAware Approximate
05:01AM -10.8140 -56.4434 144° Southeast  Level FlightAware Approximate
05:02AM -10.9267 -56.3608 144° Southeast  Level FlightAware Approximate
05:03AM -11.0393 -56.2781 144° Southeast  Level FlightAware Approximate
05:04AM -11.1519 -56.1954 144° Southeast  Level FlightAware Approximate
05:05AM -11.2645 -56.1126 144° Southeast  Level FlightAware Approximate
05:06AM -11.3770 -56.0297 144° Southeast  Level FlightAware Approximate
05:07AM -11.4895 -55.9468 144° Southeast  Level FlightAware Approximate
05:08AM -11.6020 -55.8638 144° Southeast  Level FlightAware Approximate
05:09AM -11.7145 -55.7807 144° Southeast  Level FlightAware Approximate
05:10AM -11.8270 -55.6976 144° Southeast  Level FlightAware Approximate
05:11AM -11.9394 -55.6144 144° Southeast  Level FlightAware Approximate
05:12AM -12.0518 -55.5311 144° Southeast  Level FlightAware Approximate
05:13AM -12.1642 -55.4478 144° Southeast  Level FlightAware Approximate
05:14AM -12.2766 -55.3644 144° Southeast  Level FlightAware Approximate
05:15AM -12.3889 -55.2809 144° Southeast  Level FlightAware Approximate
05:16AM -12.5012 -55.1974 144° Southeast  Level FlightAware Approximate
05:17AM -12.6135 -55.1137 144° Southeast  Level FlightAware Approximate
05:18AM -12.7257 -55.0300 144° Southeast  Level FlightAware Approximate
05:19AM -12.8380 -54.9463 144° Southeast  Level FlightAware Approximate
05:20AM -12.9502 -54.8624 144° Southeast  Level FlightAware Approximate
05:21AM -13.0624 -54.7785 144° Southeast  Level FlightAware Approximate
05:22AM -13.1745 -54.6945 144° Southeast  Level FlightAware Approximate
05:23AM -13.2866 -54.6105 144° Southeast  Level FlightAware Approximate
05:24AM -13.3987 -54.5263 144° Southeast  Level FlightAware Approximate
05:25AM -13.5108 -54.4421 144° Southeast  Level FlightAware Approximate
05:26AM -13.6228 -54.3578 144° Southeast  Level FlightAware Approximate
05:27AM -13.7348 -54.2734 144° Southeast  Level FlightAware Approximate
05:28AM -13.8468 -54.1889 144° Southeast  Level FlightAware Approximate
05:29AM -13.9588 -54.1044 144° Southeast  Level FlightAware Approximate
05:30AM -14.0707 -54.0197 144° Southeast  Level FlightAware Approximate
05:31AM -14.1826 -53.9350 144° Southeast  Level FlightAware Approximate
05:32AM -14.2944 -53.8502 144° Southeast  Level FlightAware Approximate
05:33AM -14.4063 -53.7653 144° Southeast  Level FlightAware Approximate
05:34AM -14.5181 -53.6804 144° Southeast  Level FlightAware Approximate
05:35AM -14.6298 -53.5953 144° Southeast  Level FlightAware Approximate
05:36AM -14.7416 -53.5102 144° Southeast  Level FlightAware Approximate
05:37AM -14.8533 -53.4249 144° Southeast  Level FlightAware Approximate
05:38AM -14.9650 -53.3396 144° Southeast  Level FlightAware Approximate
05:39AM -15.0766 -53.2542 144° Southeast  Level FlightAware Approximate
05:40AM -15.1882 -53.1687 144° Southeast  Level FlightAware Approximate
05:41AM -15.2998 -53.0831 144° Southeast  Level FlightAware Approximate
05:42AM -15.4114 -52.9975 143° Southeast  Level FlightAware Approximate
05:43AM -15.5229 -52.9117 143° Southeast  Level FlightAware Approximate
05:44AM -15.6344 -52.8258 143° Southeast  Level FlightAware Approximate
05:45AM -15.7458 -52.7399 143° Southeast  Level FlightAware Approximate
05:46AM -15.8573 -52.6538 143° Southeast  Level FlightAware Approximate
05:47AM -15.9686 -52.5677 143° Southeast  Level FlightAware Approximate
05:48AM -16.0800 -52.4814 143° Southeast  Level FlightAware Approximate
05:49AM -16.1913 -52.3951 143° Southeast  Level FlightAware Approximate
05:50AM -16.3026 -52.3087 143° Southeast  Level FlightAware Approximate
05:51AM -16.4138 -52.2221 143° Southeast  Level FlightAware Approximate
05:52AM -16.5250 -52.1355 143° Southeast  Level FlightAware Approximate
05:53AM -16.6362 -52.0488 143° Southeast  Level FlightAware Approximate
05:54AM -16.7474 -51.9620 143° Southeast  Level FlightAware Approximate
05:55AM -16.8584 -51.8750 143° Southeast  Level FlightAware Approximate
05:56AM -16.9695 -51.7880 143° Southeast  Level FlightAware Approximate
05:57AM -17.0805 -51.7009 143° Southeast  Level FlightAware Approximate
05:58AM -17.1915 -51.6136 143° Southeast  Level FlightAware Approximate
05:59AM -17.3025 -51.5263 143° Southeast  Level FlightAware Approximate
06:00AM -17.4134 -51.4388 143° Southeast  Level FlightAware Approximate
06:01AM -17.5243 -51.3512 143° Southeast  Level FlightAware Approximate
06:02AM -17.6351 -51.2636 143° Southeast  Level FlightAware Approximate
06:03AM -17.7459 -51.1758 143° Southeast  Level FlightAware Approximate
06:04AM -17.8567 -51.0879 143° Southeast  Level FlightAware Approximate
06:05AM -17.9674 -50.9999 143° Southeast  Level FlightAware Approximate
06:06AM -18.0781 -50.9118 143° Southeast  Level FlightAware Approximate
06:07AM -18.1887 -50.8236 143° Southeast  Level FlightAware Approximate
06:08AM -18.2993 -50.7353 143° Southeast  Level FlightAware Approximate
06:09AM -18.4099 -50.6469 143° Southeast  Level FlightAware Approximate
06:10AM -18.5204 -50.5583 143° Southeast  Level FlightAware Approximate
06:11AM -18.6309 -50.4696 143° Southeast  Level FlightAware Approximate
06:12AM -18.7413 -50.3809 143° Southeast  Level FlightAware Approximate
06:13AM -18.8517 -50.2920 143° Southeast  Level FlightAware Approximate
06:14AM -18.9621 -50.2029 143° Southeast  Level FlightAware Approximate
06:15AM -19.0724 -50.1138 143° Southeast  Level FlightAware Approximate
06:16AM -19.1827 -50.0246 143° Southeast  Level FlightAware Approximate
06:17AM -19.2929 -49.9352 143° Southeast  Level FlightAware Approximate
06:18AM -19.4031 -49.8457 143° Southeast  Level FlightAware Approximate
06:19AM -19.5132 -49.7561 143° Southeast  Level FlightAware Approximate
06:20AM -19.6233 -49.6664 142° Southeast  Level FlightAware Approximate
06:21AM -19.7333 -49.5765 142° Southeast  Level FlightAware Approximate
06:22AM -19.8433 -49.4865 142° Southeast  Level FlightAware Approximate
06:23AM -19.9533 -49.3964 142° Southeast  Level FlightAware Approximate
06:24AM -20.0632 -49.3062 142° Southeast  Level FlightAware Approximate
06:25AM -20.1731 -49.2158 142° Southeast  Level FlightAware Approximate
06:26AM -20.2829 -49.1253 142° Southeast  Level FlightAware Approximate
06:27AM -20.3927 -49.0347 142° Southeast  Level FlightAware Approximate
06:28AM -20.5024 -48.9440 142° Southeast  Level FlightAware Approximate
06:29AM -20.6121 -48.8531 142° Southeast  Level FlightAware Approximate
06:30AM -20.7217 -48.7621 142° Southeast  Level FlightAware Approximate
06:31AM -20.8313 -48.6710 142° Southeast  Level FlightAware Approximate
06:32AM -20.9408 -48.5797 142° Southeast  Level FlightAware Approximate
06:33AM -21.0503 -48.4883 142° Southeast  Level FlightAware Approximate
06:34AM -21.1598 -48.3968 142° Southeast  Level FlightAware Approximate
06:35AM -21.2691 -48.3051 142° Southeast  Level FlightAware Approximate
06:36AM -21.3785 -48.2133 142° Southeast  Level FlightAware Approximate
06:37AM -21.4878 -48.1213 142° Southeast  Level FlightAware Approximate
06:38AM -21.5970 -48.0293 142° Southeast  Level FlightAware Approximate
06:39AM -21.7062 -47.9370 142° Southeast  Level FlightAware Approximate
06:40AM -21.8168 -47.8466 143° Southeast  Level FlightAware Approximate
06:41AM -21.9232 -47.7512 148° Southeast  Level FlightAware Approximate
06:42AM -22.0362 -47.6645 143° Southeast  Level FlightAware Approximate
06:43AM -22.1459 -47.5729 139° Southeast  Level FlightAware Approximate
06:44AM -22.2512 -47.4752 139° Southeast  Level FlightAware Approximate
06:45AM -22.3568 -47.3777 142° Southeast  Level FlightAware Approximate
06:46AM -22.4668 -47.2861 142° Southeast  Level FlightAware Approximate
06:47AM -22.5763 -47.1939 141° Southeast  Level FlightAware Approximate
06:48AM -22.6848 -47.1000 141° Southeast  Level FlightAware Approximate
06:49AM -22.7932 -47.0059 141° Southeast  Level FlightAware Approximate
06:50AM -22.9013 -46.9114 141° Southeast  Level FlightAware Approximate
06:51AM -23.0085 -46.8157 140° Southeast  Level FlightAware Approximate
06:52AM -23.1182 -46.7243 155° Southeast  Level FlightAware Approximate
06:53AM -23.2303 -46.6359 143° Southeast  Level FlightAware Approximate
06:54AM -23.3366 -46.5392 145° Southeast  Level FlightAware Approximate
06:55AM -23.4167 -46.4667 137° Southeast  Level FlightAware Approximate
06:56AM -23.4321 -46.4695 137° Southeast  Level Estimated
06:57AM -23.4321 -46.4695 137° Southeast  Level Estimated
06:58AM -23.4321 -46.4695 137° Southeast  Level Estimated
06:59AM -23.4321 -46.4695 137° Southeast  Level Estimated
07:00AM -23.4321 -46.4695 137° Southeast  Level Estimated
07:01AM -23.4321 -46.4695 137° Southeast  Level Estimated
07:01AM -21.0607 -46.5156 137° Southeast 444 511 39,000  Level FlightAware ADS-B (SBMT / SAO)
07:02AM -21.1331 -46.5035 171° South 445 512 39,000  Level FlightAware ADS-B (SBMT / SAO)
07:02AM -21.2088 -46.4911 171° South 445 512 39,000  Level FlightAware ADS-B (SBMT / SAO)
07:03AM -21.3424 -46.4694 171° South 447 514 39,000  Level FlightAware ADS-B (SBMT / SAO)
07:04AM -21.4080 -46.4586 171° South 447 514 39,000  Level FlightAware ADS-B (SBMT / SAO)
07:05AM -21.4725 -46.4481 171° South 447 514 39,000  Level FlightAware ADS-B (SBMT / SAO)
07:05AM -21.5290 -46.4389 171° South 446 513 39,000  Level FlightAware ADS-B (SBMT / SAO)
07:06AM -21.5995 -46.4274 171° South 447 514 39,000  Level FlightAware ADS-B (SBMT / SAO)
07:06AM -21.6657 -46.4165 171° South 446 513 39,000  Level FlightAware ADS-B (SBMT / SAO)
07:07AM -21.7357 -46.4050 171° South 446 513 39,000  Level FlightAware ADS-B (SBMT / SAO)
07:07AM -21.8047 -46.3937 171° South 445 512 39,000  Level FlightAware ADS-B (SBMT / SAO)
07:08AM -21.9016 -46.3777 171° South 445 512 39,000 -120 Level FlightAware ADS-B (SBMT / SAO)
07:09AM -21.9813 -46.3646 171° South 439 505 38,900 -840 Descending FlightAware ADS-B (SBMT / SAO)
07:09AM -22.0613 -46.3511 171° South 416 479 37,900 -2,520 Descending FlightAware ADS-B (SBMT / SAO)
07:10AM -22.1238 -46.3387 170° South 418 481 35,800 -4,380 Descending FlightAware ADS-B (SBMT / SAO)
07:11AM -22.2026 -46.3248 171° South 431 496 32,700 -4,740 Descending FlightAware ADS-B (SBMT / SAO)
07:11AM -22.2693 -46.3137 171° South 456 525 30,100 -3,900 Descending FlightAware ADS-B (SBMT / SAO)
07:12AM -22.3320 -46.3028 171° South 455 524 28,600 -1,980 Descending FlightAware ADS-B (SBMT / SAO)
07:12AM -22.4224 -46.2899 172° South 437 503 27,700 -1,380 Descending FlightAware ADS-B (SBMT / SAO)
07:13AM -22.4908 -46.2873 178° South 422 486 26,800 -1,920 Descending FlightAware ADS-B (SBMT / SAO)
07:13AM -22.5524 -46.2866 179° South 416 479 25,600 -2,220 Descending FlightAware ADS-B (SBMT / SAO)
07:14AM -22.6035 -46.2858 179° South 411 473 24,600 -2,100 Descending FlightAware ADS-B (SBMT / SAO)
07:14AM -22.6665 -46.2850 179° South 406 467 23,500 -1,860 Descending FlightAware ADS-B (SBMT / SAO)
07:15AM -22.7289 -46.2840 179° South 394 453 22,500 -1,560 Descending FlightAware ADS-B (SBMT / SAO)
07:16AM -22.7861 -46.2830 179° South 382 440 21,800 -1,320 Descending FlightAware ADS-B (SBMT / SAO)
07:16AM -22.8429 -46.2820 179° South 378 435 21,200 -1,980 Descending FlightAware ADS-B (SBMT / SAO)
07:17AM -22.9251 -46.2805 179° South 380 437 19,300 -2,400 Descending FlightAware ADS-B (SBMT / SAO)
07:17AM -22.9758 -46.2798 179° South 375 432 18,100 -2,100 Descending FlightAware ADS-B (SBMT / SAO)
07:18AM -23.0306 -46.2790 179° South 347 399 17,100 -2,340 Descending FlightAware ADS-B (SBMT / SAO)
07:18AM -23.0827 -46.2783 179° South 322 371 15,700 -2,520 Descending FlightAware ADS-B (SBMT / SAO)
07:19AM -23.1041 -46.2793 182° South 319 367 15,100 -2,100 Descending FlightAware ADS-B (SBMT / SAO)
07:19AM -23.1204 -46.2851 198° South 316 364 14,800 -1,920 Descending FlightAware ADS-B (SBMT / SAO)
07:19AM -23.1297 -46.2919 214° Southwest 313 360 14,500 -1,800 Descending FlightAware ADS-B (SBMT / SAO)
07:19AM -23.1412 -46.3063 229° Southwest 311 358 14,200 -960 Descending FlightAware ADS-B (SBMT / SAO)
07:20AM -23.1468 -46.3458 261° West 301 346 13,900 -540 Descending FlightAware ADS-B (SBMT / SAO)
07:20AM -23.1422 -46.3588 291° West 302 348 13,900 -600 Level FlightAware ADS-B (SBMT / SAO)
07:20AM -23.1330 -46.3720 307° West 301 346 13,700 -1,140 Descending FlightAware ADS-B (SBMT / SAO)
07:20AM -23.1208 -46.3814 325° Northwest 299 344 13,500 -1,320 Descending FlightAware ADS-B (SBMT / SAO)
07:20AM -23.1100 -46.3856 341° North 297 342 13,300 -1,200 Descending FlightAware ADS-B (SBMT / SAO)
07:21AM -23.0928 -46.3862 358° North 291 335 13,100 -1,020 Descending FlightAware ADS-B (SBMT / SAO)
07:21AM -23.0638 -46.3812 North 282 325 12,700 -960 Descending FlightAware ADS-B (SBMT / SAO)
07:21AM -23.0515 -46.3812 360° North 282 325 12,600 -1,260 Descending FlightAware ADS-B (SBMT / SAO)
07:22AM -23.0075 -46.3823 359° North 281 323 11,800 -1,380 Descending FlightAware ADS-B (SBMT / SAO)
07:22AM -23.0070 -46.3823 360° North 284 327 11,500 -1,380 Descending FlightAware ADS-B (SBMT / SAO)
07:22AM -22.9815 -46.3728 19° North 277 319 11,300 -1,200 Descending FlightAware ADS-B (SBMT / SAO)
07:22AM -22.9723 -46.3620 47° Northeast 270 311 11,100 -840 Descending FlightAware ADS-B (SBMT / SAO)
07:22AM -22.9666 -46.3465 68° East 265 305 11,000 -960 Descending FlightAware ADS-B (SBMT / SAO)
07:23AM -22.9677 -46.3271 93° East 264 304 10,700 -1,380 Descending FlightAware ADS-B (SBMT / SAO)
07:23AM -22.9830 -46.3047 127° Southeast 271 312 10,200 -1,200 Descending FlightAware ADS-B (SBMT / SAO)
07:23AM -23.0011 -46.2973 159° South 275 316 10,000 -600 Descending FlightAware ADS-B (SBMT / SAO)
07:23AM -23.0044 -46.2967 172° South 278 320 10,000  Level FlightAware ADS-B (SBMT / SAO)
07:23AM -23.0143 -46.2966 179° South 279 321 10,000  Level FlightAware ADS-B (SBMT / SAO)
07:23AM -23.0212 -46.2978 189° South 280 322 10,000  Level FlightAware ADS-B (SBMT / SAO)
07:24AM -23.0277 -46.3000 197° South 282 325 10,000  Level FlightAware ADS-B (SBMT / SAO)
07:24AM -23.0300 -46.3011 204° Southwest 281 323 10,000  Level FlightAware ADS-B (SBMT / SAO)
07:24AM -23.0768 -46.3304 210° Southwest 278 320 10,000  Level FlightAware ADS-B (SBMT / SAO)
07:25AM -23.1116 -46.3534 211° Southwest 279 321 10,000  Level FlightAware ADS-B (SBMT / SAO)
07:25AM -23.1312 -46.3662 211° Southwest 279 321 10,000  Level FlightAware ADS-B (SBMT / SAO)
07:26AM -23.1629 -46.3867 211° Southwest 278 320 10,000  Level FlightAware ADS-B (SBMT / SAO)
07:26AM -23.1899 -46.4038 210° Southwest 281 323 10,000  Level FlightAware ADS-B (SBMT / SAO)
07:26AM -23.2160 -46.4201 210° Southwest 281 323 10,000  Level FlightAware ADS-B (SBMT / SAO)
07:27AM -23.2466 -46.4397 210° Southwest 281 323 10,000  Level FlightAware ADS-B (SBMT / SAO)
07:27AM -23.2669 -46.4525 210° Southwest 281 323 10,000  Level FlightAware ADS-B (SBMT / SAO)
07:27AM -23.2810 -46.4616 211° Southwest 282 325 10,000  Level FlightAware ADS-B (SBMT / SAO)
07:28AM -23.2948 -46.4703 210° Southwest 280 322 10,000 -300 Level FlightAware ADS-B (SBMT / SAO)
07:28AM -23.3291 -46.4956 214° Southwest 279 321 9,800 -420 Descending FlightAware ADS-B (SBMT / SAO)
07:28AM -23.3312 -46.4982 229° Southwest 276 318 9,800 -600 Level FlightAware ADS-B (SBMT / SAO)
07:28AM -23.3362 -46.5052 232° Southwest 275 316 9,700 -1,200 Descending FlightAware ADS-B (SBMT / SAO)
07:28AM -23.3406 -46.5130 238° Southwest 275 316 9,600 -1,320 Descending FlightAware ADS-B (SBMT / SAO)
07:28AM -23.3446 -46.5224 245° Southwest 276 318 9,400 -1,260 Descending FlightAware ADS-B (SBMT / SAO)
07:29AM -23.3511 -46.5433 251° West 279 321 9,100 -1,200 Descending FlightAware ADS-B (SBMT / SAO)
07:29AM -23.3578 -46.5642 251° West 284 327 8,800 -1,380 Descending FlightAware ADS-B (SBMT / SAO)
07:29AM -23.3636 -46.5826 251° West 284 327 8,400 -1,200 Descending FlightAware ADS-B (SBMT / SAO)
07:30AM -23.3738 -46.6160 252° West 280 322 8,000 -1,140 Descending FlightAware ADS-B (SBMT / SAO)
07:30AM -23.3821 -46.6430 252° West 269 310 7,600 -1,260 Descending FlightAware ADS-B (SBMT / SAO)
07:30AM -23.3866 -46.6552 248° West 257 296 7,400 -1,140 Descending FlightAware ADS-B (SBMT / SAO)
07:30AM -23.3900 -46.6612 239° Southwest 249 287 7,300 -1,140 Descending FlightAware ADS-B (SBMT / SAO)
07:30AM -23.3938 -46.6662 230° Southwest 241 277 7,200 -1,020 Descending FlightAware ADS-B (SBMT / SAO)
07:30AM -23.3970 -46.6695 224° Southwest 234 269 7,100 -1,020 Descending FlightAware ADS-B (SBMT / SAO)
07:31AM -23.4006 -46.6726 218° Southwest 230 265 7,000 -1,800 Descending FlightAware ADS-B (SBMT / SAO)
07:31AM -23.4082 -46.6772 209° Southwest 226 260 6,800 -2,520 Descending FlightAware ADS-B (SBMT / SAO)
07:31AM -23.4156 -46.6796 197° South 221 254 6,500 -1,620 Descending FlightAware ADS-B (SBMT / SAO)
07:31AM -23.4275 -46.6803 183° South 199 229 6,300 -1,080 Descending FlightAware ADS-B (SBMT / SAO)
07:31AM -23.4320 -46.6795 171° South 190 219 6,200 -720 Descending FlightAware ADS-B (SBMT / SAO)
07:31AM -23.4486 -46.6751 166° South 175 201 6,000 -840 Descending FlightAware ADS-B (SBMT / SAO)
07:32AM -23.4709 -46.6683 164° South 167 192 5,500 -900 Descending FlightAware ADS-B (SBMT / SAO)
07:32AM -23.4728 -46.6674 156° South 163 188 5,500 -600 Level FlightAware ADS-B (SBMT / SAO)
07:32AM -23.4776 -46.6636 144° Southeast 155 178 5,400 -1,200 Descending FlightAware ADS-B (SBMT / SAO)
07:32AM -23.4787 -46.6622 133° Southeast 150 173 5,300 -720 Descending FlightAware ADS-B (SBMT / SAO)
07:33AM -23.4802 -46.6397 94° East 139 160 5,000 -660 Descending FlightAware ADS-B (SBMT / SAO)
07:33AM -23.4763 -46.6254 73° East 136 157 4,700 -780 Descending FlightAware ADS-B (SBMT / SAO)
07:33AM -23.4727 -46.6123 73° East 135 155 4,500 -600 Descending FlightAware ADS-B (SBMT / SAO)
07:34AM -23.4688 -46.5983 74° East 135 155 4,300 -660 Descending FlightAware ADS-B (SBMT / SAO)
07:34AM -23.4660 -46.5877 74° East 139 160 4,100 -840 Descending FlightAware ADS-B (SBMT / SAO)
07:34AM -23.4620 -46.5729 74° East 142 163 3,800 -840 Descending FlightAware ADS-B (SBMT / SAO)
07:35AM -23.4587 -46.5608 74° East 138 159 3,600 -780 Descending FlightAware ADS-B (SBMT / SAO)
07:35AM -23.4535 -46.5413 74° East 136 157 3,200 -720 Descending FlightAware ADS-B (SBMT / SAO)
07:36AM -23.4477 -46.5198 74° East 137 158 2,900 -660 Descending FlightAware ADS-B (SBMT / SAO)
07:36AM -23.4447 -46.5089 73° East 136 157 2,700 -780 Descending FlightAware ADS-B (SBMT / SAO)